Time;durP1;ratioP1;P1;durP2;ratioP2;P2;SDS_P1;SDS_P2;PMS_P1;PMS_P2;Temp;Humidity;BMP_temperature;BMP_pressure;BME280_temperature;BME280_humidity;BME280_pressure;Samples;Min_cycle;Max_cycle;Signal;HPM_P1;HPM_P2
2024/02/10 00:00:06;;;;;;;2.22;1.90;;;;;;;8.51;100.00;90548.19;2094967;28;20642;-79
2024/02/10 00:01:10;;;;;;;1.80;1.70;;;;;;;8.53;100.00;90543.16;2104139;28;20028;-79
2024/02/10 00:02:11;;;;;;;1.80;1.70;;;;;;;8.57;100.00;90543.69;2111433;28;20027;-81
2024/02/10 00:03:13;;;;;;;3.30;1.73;;;;;;;8.54;100.00;90543.88;2104853;28;20111;-81
2024/02/10 00:04:16;;;;;;;2.92;2.08;;;;;;;8.45;100.00;90544.75;2104569;28;20084;-78
2024/02/10 00:05:18;;;;;;;3.22;1.80;;;;;;;8.48;100.00;90538.50;2099831;28;20099;-79
2024/02/10 00:06:19;;;;;;;2.28;1.70;;;;;;;8.27;100.00;90544.97;2105786;28;20020;-78
2024/02/10 00:07:21;;;;;;;2.22;2.03;;;;;;;8.40;100.00;90540.09;2113958;28;20063;-80
2024/02/10 00:08:22;;;;;;;2.00;1.90;;;;;;;8.38;100.00;90537.13;2114210;28;20047;-78
2024/02/10 00:09:23;;;;;;;2.17;1.80;;;;;;;8.48;100.00;90541.16;2111965;28;20051;-78
2024/02/10 00:10:27;;;;;;;1.70;1.60;;;;;;;8.53;100.00;90542.41;2105172;28;20043;-79
2024/02/10 00:11:31;;;;;;;2.13;1.60;;;;;;;8.54;100.00;90539.28;2098077;28;20028;-81
2024/02/10 00:12:33;;;;;;;2.40;1.92;;;;;;;8.47;100.00;90533.63;2095968;28;20024;-79
2024/02/10 00:13:35;;;;;;;1.95;1.75;;;;;;;8.46;100.00;90527.56;2105757;28;20467;-80
2024/02/10 00:14:36;;;;;;;2.10;1.45;;;;;;;8.47;100.00;90529.06;2113772;28;20064;-80
2024/02/10 00:15:39;;;;;;;1.67;1.58;;;;;;;8.44;100.00;90529.25;2111392;28;20102;-81
2024/02/10 00:16:39;;;;;;;2.05;1.83;;;;;;;8.38;100.00;90523.09;2105568;28;20056;-81
2024/02/10 00:17:40;;;;;;;1.98;1.63;;;;;;;8.25;100.00;90518.81;2105575;28;20024;-81
2024/02/10 00:18:42;;;;;;;1.60;1.50;;;;;;;8.36;100.00;90520.16;2097340;28;20032;-79
2024/02/10 00:19:48;;;;;;;1.52;1.42;;;;;;;8.46;100.00;90526.84;2097487;28;20082;-80
2024/02/10 00:20:50;;;;;;;1.85;1.48;;;;;;;8.46;100.00;90513.53;2106509;28;20630;-79
2024/02/10 00:21:51;;;;;;;1.55;1.30;;;;;;;8.53;100.00;90510.47;2105490;28;20052;-79
2024/02/10 00:22:52;;;;;;;3.22;1.65;;;;;;;8.51;100.00;90523.50;2111804;28;20464;-79
2024/02/10 00:23:54;;;;;;;1.88;1.52;;;;;;;8.56;100.00;90510.28;2105497;28;20055;-82
2024/02/10 00:24:56;;;;;;;1.70;1.30;;;;;;;8.53;100.00;90518.47;2104295;28;20047;-79
2024/02/10 00:25:57;;;;;;;1.60;1.50;;;;;;;8.36;100.00;90512.16;2105291;28;20102;-79
2024/02/10 00:27:01;;;;;;;1.50;1.40;;;;;;;8.37;100.00;90521.63;2096452;28;20043;-80
2024/02/10 00:28:02;;;;;;;2.10;1.90;;;;;;;8.42;100.00;90515.66;2105406;28;20016;-79
2024/02/10 00:29:04;;;;;;;1.48;1.38;;;;;;;8.35;100.00;90524.75;2114095;28;20103;-78
2024/02/10 00:30:07;;;;;;;1.70;1.58;;;;;;;8.40;100.00;90518.78;2113648;28;20029;-80
2024/02/10 00:31:08;;;;;;;1.35;1.25;;;;;;;8.36;100.00;90518.22;2112143;28;20027;-80
2024/02/10 00:32:10;;;;;;;1.80;1.70;;;;;;;8.40;100.00;90520.72;2110401;28;20106;-79
2024/02/10 00:33:11;;;;;;;1.45;1.35;;;;;;;8.42;100.00;90511.06;2114326;28;20468;-80
2024/02/10 00:34:13;;;;;;;2.60;1.42;;;;;;;8.41;100.00;90519.50;2113963;28;20114;-79
2024/02/10 00:35:16;;;;;;;1.83;1.63;;;;;;;8.40;100.00;90513.47;2112931;28;20024;-78
2024/02/10 00:36:17;;;;;;;1.52;1.40;;;;;;;8.53;100.00;90510.47;2105775;28;20047;-79
2024/02/10 00:37:18;;;;;;;2.05;1.85;;;;;;;8.53;100.00;90510.47;2107971;28;20133;-80
2024/02/10 00:38:21;;;;;;;1.73;1.58;;;;;;;8.61;100.00;90508.16;2113640;28;20125;-80
2024/02/10 00:39:23;;;;;;;2.03;1.85;;;;;;;8.66;100.00;90502.88;2105743;28;20400;-79
2024/02/10 00:40:24;;;;;;;1.70;1.60;;;;;;;8.58;100.00;90502.53;2105477;28;20098;-81
2024/02/10 00:41:25;;;;;;;1.40;1.30;;;;;;;8.53;100.00;90505.88;2107888;28;20100;-78
2024/02/10 00:42:28;;;;;;;3.55;1.40;;;;;;;8.46;100.00;90505.53;2097547;28;20422;-77
2024/02/10 00:43:29;;;;;;;1.10;1.00;;;;;;;8.26;100.00;90504.31;2101632;28;20024;-81
2024/02/10 00:44:30;;;;;;;2.88;1.40;;;;;;;8.38;100.00;90504.47;2105614;28;20448;-79
2024/02/10 00:45:31;;;;;;;1.30;1.13;;;;;;;8.44;100.00;90499.97;2111861;28;20026;-79
2024/02/10 00:46:32;;;;;;;1.42;1.33;;;;;;;8.50;100.00;90501.47;2105566;28;20388;-79
2024/02/10 00:47:34;;;;;;;1.80;1.13;;;;;;;8.46;100.00;90502.88;2105640;28;20412;-78
2024/02/10 00:48:37;;;;;;;1.20;0.95;;;;;;;8.35;100.00;90495.47;2105311;28;20035;-79
2024/02/10 00:49:42;;;;;;;1.00;1.00;;;;;;;8.51;100.00;90497.59;2096898;28;20028;-81
2024/02/10 00:50:45;;;;;;;1.00;0.90;;;;;;;8.56;100.00;90498.91;2096607;28;20103;-80
2024/02/10 00:51:46;;;;;;;1.60;1.00;;;;;;;8.52;100.00;90495.72;2112513;28;20023;-80
2024/02/10 00:52:49;;;;;;;0.80;0.80;;;;;;;8.42;100.00;90492.44;2112709;28;20480;-80
2024/02/10 00:53:53;;;;;;;1.10;1.00;;;;;;;8.48;100.00;90498.56;2106166;28;20463;-77
2024/02/10 00:54:54;;;;;;;1.83;1.02;;;;;;;8.51;100.00;90494.94;2104375;28;20036;-81
2024/02/10 00:55:55;;;;;;;1.02;0.93;;;;;;;8.62;100.00;90501.63;2105098;28;20020;-78
2024/02/10 00:56:56;;;;;;;0.82;0.82;;;;;;;8.56;100.00;90493.56;2113154;28;20036;-79
2024/02/10 00:58:04;;;;;;;1.05;0.90;;;;;;;8.62;100.00;90490.97;2113720;28;20047;-80
2024/02/10 00:59:05;;;;;;;0.80;0.80;;;;;;;8.66;100.00;90494.16;2113439;28;20527;-80
2024/02/10 01:00:16;;;;;;;0.90;0.90;;;;;;;8.66;100.00;90492.22;2105007;28;20085;-79
2024/02/10 01:01:21;;;;;;;0.80;0.80;;;;;;;8.56;100.00;90483.66;2106130;28;20528;-81
2024/02/10 01:02:23;;;;;;;1.10;1.00;;;;;;;8.52;100.00;90483.13;2112970;28;20016;-80
2024/02/10 01:03:24;;;;;;;1.30;1.20;;;;;;;8.48;100.00;90482.59;2105162;28;20429;-80
2024/02/10 01:04:27;;;;;;;1.10;1.00;;;;;;;8.42;100.00;90478.38;2104666;28;20028;-81
2024/02/10 01:05:29;;;;;;;1.52;1.27;;;;;;;8.48;100.00;90477.25;2113284;28;20035;-79
2024/02/10 01:06:30;;;;;;;1.00;1.00;;;;;;;8.48;100.00;90473.88;2104232;28;20024;-80
2024/02/10 01:07:32;;;;;;;1.15;1.05;;;;;;;8.32;100.00;90478.50;2096270;28;20012;-79
2024/02/10 01:08:35;;;;;;;0.95;0.95;;;;;;;8.40;100.00;90468.22;2105248;28;20034;-80
2024/02/10 01:09:40;;;;;;;0.98;0.90;;;;;;;8.41;100.00;90472.34;2105283;28;20483;-80
2024/02/10 01:10:41;;;;;;;0.90;0.90;;;;;;;8.29;100.00;90462.72;2104699;28;20035;-81
2024/02/10 01:11:43;;;;;;;0.90;0.90;;;;;;;8.19;100.00;90467.44;2101099;28;20103;-79
2024/02/10 01:12:44;;;;;;;0.90;0.80;;;;;;;8.24;100.00;90458.78;2105461;28;20058;-81
2024/02/10 01:13:46;;;;;;;2.40;1.02;;;;;;;8.22;100.00;90460.47;2113171;28;20046;-80
2024/02/10 01:14:47;;;;;;;1.77;1.00;;;;;;;8.14;100.00;90459.41;2114400;28;20020;-79
2024/02/10 01:15:54;;;;;;;1.10;1.00;;;;;;;8.21;100.00;90453.66;2113108;28;20142;-78
2024/02/10 01:16:57;;;;;;;0.93;0.93;;;;;;;8.18;100.00;90458.00;2113626;28;20020;-81
2024/02/10 01:18:01;;;;;;;1.00;0.90;;;;;;;8.36;100.00;90459.66;2113424;28;21808;-81
2024/02/10 01:19:03;;;;;;;1.20;1.08;;;;;;;8.32;100.00;90451.88;2104940;28;20131;-80
2024/02/10 01:20:06;;;;;;;1.38;0.90;;;;;;;8.28;100.00;90453.28;2096383;28;20103;-79
2024/02/10 01:21:09;;;;;;;0.80;0.80;;;;;;;8.24;100.00;90452.75;2113348;28;20025;-80
2024/02/10 01:22:10;;;;;;;4.32;1.00;;;;;;;8.26;100.00;90450.38;2103075;28;20044;-81
2024/02/10 01:23:11;;;;;;;0.75;0.75;;;;;;;8.16;100.00;90451.69;2096728;28;20031;-83
2024/02/10 01:24:12;;;;;;;1.02;0.85;;;;;;;8.23;100.00;90448.63;2111799;28;20115;-78
2024/02/10 01:25:13;;;;;;;0.82;0.80;;;;;;;8.14;100.00;90444.16;2112323;28;20073;-79
2024/02/10 01:26:17;;;;;;;0.70;0.70;;;;;;;8.02;100.00;90445.94;2112935;28;20477;-80
2024/02/10 01:27:21;;;;;;;0.80;0.80;;;;;;;8.17;100.00;90443.25;2095801;28;20434;-79
2024/02/10 01:28:22;;;;;;;1.58;0.90;;;;;;;8.21;100.00;90433.13;2080376;28;20029;-80
2024/02/10 01:29:24;;;;;;;1.30;0.80;;;;;;;8.20;100.00;90441.56;2080338;28;20912;-81
2024/02/10 01:30:26;;;;;;;0.80;0.80;;;;;;;8.11;100.00;90437.09;2098003;28;20152;-81
2024/02/10 01:31:27;;;;;;;0.80;0.80;;;;;;;7.91;100.00;90440.50;2017982;28;20036;-81
2024/02/10 01:32:28;;;;;;;0.68;0.68;;;;;;;8.17;100.00;90435.25;2010781;28;20033;-80
2024/02/10 01:33:29;;;;;;;0.77;0.77;;;;;;;8.16;100.00;90441.03;2021948;28;20115;-78
2024/02/10 01:34:30;;;;;;;1.45;0.75;;;;;;;8.25;100.00;90428.34;2025874;28;20067;-79
2024/02/10 01:35:31;;;;;;;0.70;0.70;;;;;;;8.28;100.00;90429.31;2021377;28;22252;-80
2024/02/10 01:36:33;;;;;;;0.80;0.80;;;;;;;8.05;100.00;90433.66;2009706;28;20032;-80
2024/02/10 01:37:34;;;;;;;0.60;0.60;;;;;;;8.17;100.00;90432.59;2023536;28;20029;-80
2024/02/10 01:38:42;;;;;;;0.60;0.60;;;;;;;8.20;100.00;90430.91;2034226;28;20691;-80
2024/02/10 01:39:48;;;;;;;0.70;0.70;;;;;;;8.26;100.00;90421.81;2051184;28;20463;-79
2024/02/10 01:40:51;;;;;;;0.45;0.45;;;;;;;8.39;100.00;90428.75;2036425;28;20986;-81
2024/02/10 01:41:54;;;;;;;0.47;0.47;;;;;;;8.31;100.00;90425.75;2047176;28;20035;-82
2024/02/10 01:42:55;;;;;;;0.40;0.40;;;;;;;8.30;100.00;90430.34;2070480;28;20024;-79
2024/02/10 01:43:58;;;;;;;0.40;0.40;;;;;;;8.32;100.00;90422.59;2074316;28;20061;-81
2024/02/10 01:44:59;;;;;;;0.40;0.40;;;;;;;8.34;100.00;90422.16;2079240;28;20512;-80
2024/02/10 01:46:01;;;;;;;0.30;0.30;;;;;;;8.35;100.00;90423.63;2091428;28;20145;-79
2024/02/10 01:47:02;;;;;;;0.55;0.52;;;;;;;8.39;100.00;90420.78;2102860;28;20067;-81
2024/02/10 01:48:08;;;;;;;0.95;0.50;;;;;;;8.40;100.00;90414.25;2095990;28;20031;-80
2024/02/10 01:49:09;;;;;;;0.70;0.70;;;;;;;8.08;100.00;90416.78;2094529;28;20485;-81
2024/02/10 01:50:12;;;;;;;1.15;0.60;;;;;;;8.24;100.00;90404.84;2085877;28;20394;-79
2024/02/10 01:51:17;;;;;;;1.17;0.73;;;;;;;8.34;100.00;90406.19;2080009;28;20100;-81
2024/02/10 01:52:18;;;;;;;0.80;0.73;;;;;;;8.29;100.00;90404.91;2088616;28;20121;-80
2024/02/10 01:53:19;;;;;;;0.70;0.70;;;;;;;8.26;100.00;90407.78;2096522;28;20090;-80
2024/02/10 01:54:21;;;;;;;0.70;0.70;;;;;;;8.21;100.00;90403.09;2096577;28;20039;-81
2024/02/10 01:55:23;;;;;;;0.68;0.68;;;;;;;8.16;100.00;90395.81;2077526;28;20108;-80
2024/02/10 01:56:29;;;;;;;0.57;0.57;;;;;;;8.31;100.00;90402.53;2079557;28;20455;-80
2024/02/10 01:57:31;;;;;;;0.70;0.70;;;;;;;8.39;100.00;90399.50;2095333;28;20024;-79
2024/02/10 01:58:34;;;;;;;0.90;0.90;;;;;;;8.34;100.00;90387.56;2087294;28;20086;-81
2024/02/10 01:59:38;;;;;;;2.38;0.90;;;;;;;8.38;100.00;90388.09;2087948;28;20080;-79
2024/02/10 02:00:39;;;;;;;0.82;0.73;;;;;;;8.39;100.00;90392.22;2083854;28;20166;-78
2024/02/10 02:01:45;;;;;;;0.70;0.70;;;;;;;8.37;100.00;90393.88;2086691;28;20029;-81
2024/02/10 02:02:49;;;;;;;0.70;0.70;;;;;;;8.34;100.00;90392.88;2083776;28;20037;-79
2024/02/10 02:03:51;;;;;;;0.70;0.70;;;;;;;8.22;100.00;90384.03;2005976;28;20035;-78
2024/02/10 02:04:53;;;;;;;0.73;0.73;;;;;;;8.25;100.00;90383.13;2022851;28;22083;-79
2024/02/10 02:05:54;;;;;;;0.93;0.80;;;;;;;8.27;100.00;90380.69;2003270;28;20051;-79
2024/02/10 02:06:57;;;;;;;0.70;0.70;;;;;;;8.34;100.00;90376.91;2013197;28;20045;-80
2024/02/10 02:07:59;;;;;;;1.13;0.88;;;;;;;8.29;100.00;90380.22;2018937;28;20028;-81
2024/02/10 02:09:00;;;;;;;0.80;0.80;;;;;;;8.25;100.00;90377.03;2033801;28;22873;-81
2024/02/10 02:10:02;;;;;;;1.00;0.90;;;;;;;8.24;100.00;90380.91;2031696;28;20033;-81
2024/02/10 02:11:04;;;;;;;1.05;0.95;;;;;;;8.26;100.00;90381.19;2026887;28;20025;-82
2024/02/10 02:12:07;;;;;;;3.03;1.20;;;;;;;8.20;100.00;90383.03;2038077;28;20045;-81
2024/02/10 02:13:08;;;;;;;4.45;1.35;;;;;;;8.17;100.00;90376.00;2038800;28;20458;-80
2024/02/10 02:14:10;;;;;;;1.33;1.00;;;;;;;8.20;100.00;90388.34;2054793;28;20033;-79
2024/02/10 02:15:11;;;;;;;0.90;0.90;;;;;;;8.31;100.00;90378.56;2055219;28;20064;-80
2024/02/10 02:16:12;;;;;;;0.98;0.98;;;;;;;8.33;100.00;90386.81;2051816;28;20439;-80
2024/02/10 02:17:13;;;;;;;0.80;0.80;;;;;;;8.24;100.00;90380.91;2092361;28;20025;-79
2024/02/10 02:18:14;;;;;;;3.15;0.95;;;;;;;8.28;100.00;90374.19;2086947;28;20049;-80
2024/02/10 02:19:16;;;;;;;0.75;0.75;;;;;;;8.03;100.00;90378.28;2080184;28;20048;-80
2024/02/10 02:20:26;;;;;;;1.13;0.98;;;;;;;8.05;100.00;90372.47;2087986;28;20377;-79
2024/02/10 02:21:27;;;;;;;0.70;0.70;;;;;;;8.13;100.00;90370.16;2093055;28;20039;-80
2024/02/10 02:22:28;;;;;;;0.80;0.80;;;;;;;8.06;100.00;90376.59;2097995;28;20028;-78
2024/02/10 02:23:29;;;;;;;1.02;0.82;;;;;;;8.17;100.00;90373.34;2096141;28;20052;-80
2024/02/10 02:26:27;;;;;;;;;;;;;;;6.73;100.00;90379.59;2134606;27;20655;-78
2024/02/10 02:27:28;;;;;;;0.80;0.80;;;;;;;6.78;100.00;90384.25;2125719;27;19967;-81
2024/02/10 02:28:29;;;;;;;0.80;0.63;;;;;;;6.91;100.00;90382.06;2114126;28;20027;-79
2024/02/10 02:29:31;;;;;;;0.90;0.70;;;;;;;6.85;100.00;90380.50;2131148;27;20019;-80
2024/02/10 02:30:35;;;;;;;0.60;0.60;;;;;;;6.83;100.00;90380.97;2132713;27;20023;-80
2024/02/10 02:31:37;;;;;;;0.70;0.70;;;;;;;6.80;100.00;90373.91;2122686;27;20046;-80
2024/02/10 02:32:38;;;;;;;0.55;0.55;;;;;;;6.86;100.00;90379.31;2114381;27;20019;-81
2024/02/10 02:33:40;;;;;;;0.93;0.60;;;;;;;6.84;100.00;90379.03;2119531;27;20027;-80
2024/02/10 02:34:41;;;;;;;0.70;0.70;;;;;;;6.80;100.00;90373.91;2117285;27;20027;-81
2024/02/10 02:35:45;;;;;;;0.65;0.57;;;;;;;6.82;100.00;90372.25;2115849;27;20042;-81
2024/02/10 02:36:46;;;;;;;0.50;0.50;;;;;;;6.86;100.00;90372.09;2117630;27;20031;-79
2024/02/10 02:37:47;;;;;;;1.20;0.60;;;;;;;6.86;100.00;90369.44;2100965;28;20036;-81
2024/02/10 02:38:48;;;;;;;0.60;0.60;;;;;;;6.74;100.00;90371.16;2111505;28;20465;-80
2024/02/10 02:39:49;;;;;;;0.52;0.52;;;;;;;6.86;100.00;90361.47;2119257;27;20768;-81
2024/02/10 02:40:50;;;;;;;1.83;0.70;;;;;;;6.91;100.00;90363.47;2109306;28;20028;-80
2024/02/10 02:41:57;;;;;;;0.60;0.60;;;;;;;6.93;100.00;90363.72;2113481;27;20451;-82
2024/02/10 02:43:02;;;;;;;0.73;0.73;;;;;;;6.89;100.00;90357.16;2116928;27;21199;-80
2024/02/10 02:44:05;;;;;;;0.65;0.65;;;;;;;6.79;100.00;90362.56;2109286;28;20021;-81
2024/02/10 02:45:10;;;;;;;0.80;0.80;;;;;;;6.78;100.00;90357.72;2122874;27;20015;-79
2024/02/10 02:46:14;;;;;;;0.70;0.70;;;;;;;6.84;100.00;90361.19;2123350;27;20399;-81
2024/02/10 02:47:14;;;;;;;0.80;0.80;;;;;;;6.86;100.00;90352.78;2116747;27;20028;-81
2024/02/10 02:48:15;;;;;;;1.02;0.93;;;;;;;6.83;100.00;90349.09;2113856;27;20462;-82
2024/02/10 02:49:16;;;;;;;1.70;0.70;;;;;;;6.89;100.00;90349.94;2127366;27;20030;-83
2024/02/10 02:50:19;;;;;;;0.70;0.70;;;;;;;6.78;100.00;90347.81;2126860;27;20573;-82
2024/02/10 02:51:21;;;;;;;0.80;0.68;;;;;;;6.84;100.00;90355.88;2123138;27;20491;-82
2024/02/10 02:52:23;;;;;;;0.90;0.90;;;;;;;6.77;100.00;90353.59;2126585;27;20055;-80
2024/02/10 02:53:25;;;;;;;1.00;0.80;;;;;;;6.81;100.00;90344.25;2117053;27;20024;-82
2024/02/10 02:54:26;;;;;;;2.28;0.57;;;;;;;6.73;100.00;90347.75;2116518;27;20082;-83
2024/02/10 02:55:30;;;;;;;2.03;0.70;;;;;;;6.87;100.00;90352.31;2111799;28;20038;-82
2024/02/10 02:56:31;;;;;;;0.80;0.80;;;;;;;6.89;100.00;90352.59;2119457;28;20834;-81
2024/02/10 02:57:33;;;;;;;2.00;0.68;;;;;;;6.91;100.00;90347.53;2123193;27;20010;-81
2024/02/10 02:58:34;;;;;;;0.65;0.65;;;;;;;6.92;100.00;90342.97;2127660;27;20046;-80
2024/02/10 02:59:35;;;;;;;0.73;0.73;;;;;;;6.87;100.00;90343.63;2126917;27;20095;-82
2024/02/10 03:00:38;;;;;;;1.85;0.50;;;;;;;6.90;100.00;90346.09;2127170;27;20022;-82
2024/02/10 03:01:40;;;;;;;0.50;0.50;;;;;;;6.85;100.00;90344.09;2126214;27;20076;-80
2024/02/10 03:02:42;;;;;;;1.55;0.60;;;;;;;6.80;100.00;90339.41;2127390;27;20026;-81
2024/02/10 03:03:49;;;;;;;0.70;0.70;;;;;;;6.85;100.00;90346.72;2113461;27;20032;-78
2024/02/10 03:04:50;;;;;;;0.68;0.60;;;;;;;6.77;100.00;90343.00;2122662;27;20038;-80
2024/02/10 03:05:53;;;;;;;0.80;0.80;;;;;;;6.81;100.00;90338.22;2116512;27;20028;-81
2024/02/10 03:06:54;;;;;;;0.98;0.80;;;;;;;6.80;100.00;90331.44;2114394;27;20027;-81
2024/02/10 03:07:55;;;;;;;0.63;0.63;;;;;;;6.81;100.00;90338.94;2115540;27;20055;-81
2024/02/10 03:08:58;;;;;;;0.93;0.60;;;;;;;6.85;100.00;90332.69;2114888;27;20037;-82
2024/02/10 03:09:59;;;;;;;2.20;0.70;;;;;;;6.85;100.00;90333.47;2123058;27;20034;-80
2024/02/10 03:11:00;;;;;;;2.40;0.65;;;;;;;6.89;100.00;90334.00;2125632;27;20027;-79
2024/02/10 03:12:02;;;;;;;0.70;0.70;;;;;;;6.87;100.00;90325.75;2116697;27;20045;-81
2024/02/10 03:13:03;;;;;;;0.60;0.60;;;;;;;6.85;100.00;90332.69;2113098;28;20039;-80
2024/02/10 03:14:04;;;;;;;0.60;0.60;;;;;;;6.88;100.00;90337.84;2107703;28;20091;-79
2024/02/10 03:15:05;;;;;;;0.70;0.70;;;;;;;6.82;100.00;90327.13;2106244;28;20028;-83
2024/02/10 03:16:06;;;;;;;0.68;0.68;;;;;;;6.78;100.00;90323.94;2118674;27;20047;-81
2024/02/10 03:17:10;;;;;;;0.93;0.60;;;;;;;6.82;100.00;90319.16;2133326;27;20023;-79
2024/02/10 03:18:12;;;;;;;0.60;0.60;;;;;;;6.72;100.00;90323.13;2122766;27;20031;-82
2024/02/10 03:19:13;;;;;;;0.80;0.80;;;;;;;6.69;100.00;90329.34;2115630;27;20016;-82
2024/02/10 03:20:14;;;;;;;0.77;0.60;;;;;;;6.70;100.00;90316.81;2125203;27;20455;-81
2024/02/10 03:21:21;;;;;;;0.68;0.68;;;;;;;6.82;100.00;90318.44;2125814;27;20027;-85
2024/02/10 03:22:24;;;;;;;0.77;0.77;;;;;;;6.82;100.00;90323.75;2121883;27;20011;-81
2024/02/10 03:23:24;;;;;;;0.70;0.70;;;;;;;6.73;100.00;90323.84;2113320;28;20058;-82
2024/02/10 03:24:28;;;;;;;0.70;0.70;;;;;;;6.69;100.00;90316.06;2120522;27;20516;-82
2024/02/10 03:25:29;;;;;;;0.75;0.75;;;;;;;6.72;100.00;90322.41;2122806;27;20071;-81
2024/02/10 03:26:32;;;;;;;1.10;0.60;;;;;;;6.69;100.00;90326.69;2118934;27;20050;-79
2024/02/10 03:27:33;;;;;;;0.60;0.60;;;;;;;6.63;100.00;90325.88;2118612;27;20044;-81
2024/02/10 03:28:34;;;;;;;0.60;0.60;;;;;;;6.56;100.00;90326.97;2125915;27;20019;-82
2024/02/10 03:29:35;;;;;;;0.60;0.60;;;;;;;6.53;100.00;90330.53;2126666;27;20427;-81
2024/02/10 03:30:36;;;;;;;0.93;0.65;;;;;;;6.55;100.00;90327.44;2114638;28;20026;-83
2024/02/10 03:31:37;;;;;;;0.70;0.70;;;;;;;6.64;100.00;90326.63;2113799;27;20434;-83
2024/02/10 03:32:38;;;;;;;0.70;0.70;;;;;;;6.80;100.00;90328.78;2122405;27;20042;-82
2024/02/10 03:33:39;;;;;;;1.23;0.80;;;;;;;6.75;100.00;90322.19;2107406;28;20070;-80
2024/02/10 03:34:40;;;;;;;0.70;0.70;;;;;;;6.77;100.00;90319.81;2105072;28;20027;-81
2024/02/10 03:35:41;;;;;;;0.70;0.70;;;;;;;6.81;100.00;90315.06;2118057;27;20031;-82
2024/02/10 03:36:42;;;;;;;0.70;0.70;;;;;;;6.77;100.00;90313.78;2117666;27;20027;-81
2024/02/10 03:37:43;;;;;;;0.70;0.60;;;;;;;6.79;100.00;90320.09;2118972;27;20028;-79
2024/02/10 03:38:44;;;;;;;0.50;0.50;;;;;;;6.74;100.00;90320.72;2120863;27;20450;-83
2024/02/10 03:39:45;;;;;;;0.65;0.65;;;;;;;6.71;100.00;90326.22;2101632;28;20030;-81
2024/02/10 03:40:46;;;;;;;0.52;0.52;;;;;;;6.71;100.00;90318.25;2097439;28;20393;-81
2024/02/10 03:41:48;;;;;;;0.68;0.63;;;;;;;6.72;100.00;90331.09;2112775;27;20023;-79
2024/02/10 03:42:49;;;;;;;0.60;0.60;;;;;;;6.68;100.00;90325.22;2118725;27;20367;-81
2024/02/10 03:43:50;;;;;;;0.57;0.57;;;;;;;6.62;100.00;90331.63;2117311;27;20023;-80
2024/02/10 03:44:52;;;;;;;1.10;0.60;;;;;;;6.36;100.00;90324.22;2117129;27;20218;-81
2024/02/10 03:45:53;;;;;;;0.60;0.60;;;;;;;6.34;100.00;90325.88;2120383;27;20484;-82
2024/02/10 03:46:55;;;;;;;0.43;0.43;;;;;;;6.38;100.00;90331.75;2108447;28;20248;-81
2024/02/10 03:48:07;;;;;;;2.15;0.52;;;;;;;6.31;100.00;90325.59;2102865;28;20394;-83
2024/02/10 03:49:08;;;;;;;0.68;0.68;;;;;;;6.38;100.00;90327.16;2107231;27;20019;-82
2024/02/10 03:50:13;;;;;;;1.55;0.70;;;;;;;6.50;100.00;90333.41;2110084;28;20020;-79
2024/02/10 03:51:14;;;;;;;0.50;0.50;;;;;;;6.52;100.00;90331.00;2112428;27;20444;-79
2024/02/10 03:52:15;;;;;;;2.15;0.65;;;;;;;6.51;100.00;90332.94;2120331;27;20085;-81
2024/02/10 03:53:17;;;;;;;0.50;0.50;;;;;;;6.51;100.00;90329.53;2117930;27;20019;-80
2024/02/10 03:54:18;;;;;;;0.63;0.63;;;;;;;6.48;100.00;90336.50;2109808;28;20106;-82
2024/02/10 03:55:19;;;;;;;2.25;0.70;;;;;;;6.51;100.00;90337.50;2106170;28;20651;-80
2024/02/10 03:56:21;;;;;;;0.60;0.60;;;;;;;6.42;100.00;90338.31;2112430;27;20023;-82
2024/02/10 03:57:22;;;;;;;0.60;0.60;;;;;;;6.40;100.00;90337.31;2109098;27;20098;-81
2024/02/10 03:58:24;;;;;;;0.50;0.50;;;;;;;6.40;100.00;90329.34;2117101;27;20026;-82
2024/02/10 03:59:25;;;;;;;2.58;0.70;;;;;;;6.40;100.00;90332.72;2120628;27;20019;-80
2024/02/10 04:00:28;;;;;;;2.50;0.60;;;;;;;6.37;100.00;90338.25;2118434;27;20495;-79
2024/02/10 04:01:29;;;;;;;2.95;0.98;;;;;;;6.19;100.00;90331.91;2121183;27;20716;-80
2024/02/10 04:02:30;;;;;;;0.90;0.90;;;;;;;6.29;100.00;90337.88;2121332;27;20026;-80
2024/02/10 04:03:32;;;;;;;1.10;1.00;;;;;;;6.31;100.00;90330.16;2101336;28;20016;-79
2024/02/10 04:04:36;;;;;;;1.00;0.90;;;;;;;6.30;100.00;90340.03;2103731;27;20032;-80
2024/02/10 04:05:39;;;;;;;3.17;1.08;;;;;;;6.30;100.00;90331.38;2109897;27;20514;-79
2024/02/10 04:06:40;;;;;;;1.50;1.40;;;;;;;6.34;100.00;90339.88;2099565;28;20031;-81
2024/02/10 04:07:41;;;;;;;1.48;1.38;;;;;;;6.36;100.00;90331.44;2103855;28;20044;-79
2024/02/10 04:08:45;;;;;;;1.65;1.55;;;;;;;6.35;100.00;90336.03;2100861;28;20488;-80
2024/02/10 04:09:46;;;;;;;2.22;1.75;;;;;;;6.39;100.00;90335.84;2106512;27;20020;-80
2024/02/10 04:10:47;;;;;;;2.75;1.60;;;;;;;6.34;100.00;90339.88;2119938;27;20080;-81
2024/02/10 04:11:48;;;;;;;3.78;1.48;;;;;;;6.45;100.00;90340.06;2116938;27;20823;-79
2024/02/10 04:12:49;;;;;;;1.60;1.50;;;;;;;6.45;100.00;90344.63;2116634;27;20491;-79
2024/02/10 04:13:52;;;;;;;1.73;1.63;;;;;;;6.43;100.00;90341.72;2115844;27;20122;-82
2024/02/10 04:14:58;;;;;;;2.53;1.92;;;;;;;6.42;100.00;90348.94;2120048;27;20031;-80
2024/02/10 04:16:00;;;;;;;1.83;1.73;;;;;;;6.37;100.00;90340.91;2115861;27;20024;-81
2024/02/10 04:17:01;;;;;;;1.77;1.60;;;;;;;6.46;100.00;90344.19;2110475;27;20053;-82
2024/02/10 04:18:05;;;;;;;2.70;1.60;;;;;;;6.56;100.00;90337.59;2110201;27;20359;-83
2024/02/10 04:19:06;;;;;;;1.88;1.70;;;;;;;6.57;100.00;90344.34;2114620;27;20063;-79
2024/02/10 04:20:09;;;;;;;1.80;1.70;;;;;;;6.65;100.00;90346.66;2099743;28;20390;-80
2024/02/10 04:21:12;;;;;;;3.13;2.35;;;;;;;6.62;100.00;90342.25;2108419;27;20375;-81
2024/02/10 04:22:13;;;;;;;2.50;1.73;;;;;;;6.55;100.00;90349.41;2106962;27;20422;-81
2024/02/10 04:23:14;;;;;;;3.17;1.90;;;;;;;6.54;100.00;90337.31;2100748;28;20020;-79
2024/02/10 04:24:17;;;;;;;2.05;1.60;;;;;;;6.55;100.00;90346.75;2120756;27;20415;-83
2024/02/10 04:25:18;;;;;;;2.50;1.90;;;;;;;6.41;100.00;90346.72;2121129;27;20023;-82
2024/02/10 04:26:19;;;;;;;1.85;1.70;;;;;;;6.52;100.00;90345.00;2120266;27;20092;-82
2024/02/10 04:27:20;;;;;;;1.60;1.50;;;;;;;6.46;100.00;90340.81;2118030;27;20080;-80
2024/02/10 04:28:22;;;;;;;1.70;1.60;;;;;;;6.41;100.00;90338.75;2118204;27;20023;-83
2024/02/10 04:29:23;;;;;;;1.90;1.65;;;;;;;6.39;100.00;90344.53;2114244;27;20047;-78
2024/02/10 04:30:24;;;;;;;1.70;1.60;;;;;;;6.42;100.00;90340.25;2111610;27;20453;-82
2024/02/10 04:31:26;;;;;;;1.70;1.60;;;;;;;6.44;100.00;90335.22;2110018;27;20015;-82
2024/02/10 04:32:27;;;;;;;2.22;2.03;;;;;;;6.40;100.00;90332.72;2113024;27;20434;-81
2024/02/10 04:33:28;;;;;;;2.03;1.67;;;;;;;6.50;100.00;90336.06;2113873;27;21111;-80
2024/02/10 04:34:31;;;;;;;2.08;1.85;;;;;;;6.53;100.00;90329.81;2116617;27;20028;-82
2024/02/10 04:35:32;;;;;;;2.35;2.15;;;;;;;6.55;100.00;90333.47;2102550;28;20094;-81
2024/02/10 04:36:35;;;;;;;4.70;2.05;;;;;;;6.54;100.00;90328.59;2110733;28;20100;-81
2024/02/10 04:37:36;;;;;;;1.98;1.80;;;;;;;6.47;100.00;90329.72;2097934;28;20028;-80
2024/02/10 04:38:37;;;;;;;2.63;2.10;;;;;;;6.44;100.00;90333.28;2102306;28;20377;-82
2024/02/10 04:39:38;;;;;;;2.08;1.88;;;;;;;6.40;100.00;90332.72;2103809;28;20122;-81
2024/02/10 04:40:39;;;;;;;1.80;1.70;;;;;;;6.29;100.00;90332.56;2097317;28;20021;-82
2024/02/10 04:41:40;;;;;;;2.08;1.85;;;;;;;6.26;100.00;90336.84;2117064;27;20027;-82
2024/02/10 04:42:41;;;;;;;2.22;2.10;;;;;;;6.30;100.00;90336.66;2108411;28;20106;-81
2024/02/10 04:43:42;;;;;;;2.30;2.10;;;;;;;6.37;100.00;90332.94;2098718;28;20029;-82
2024/02/10 04:44:48;;;;;;;1.98;1.77;;;;;;;6.47;100.00;90332.38;2106529;27;20027;-83
2024/02/10 04:45:50;;;;;;;2.50;2.30;;;;;;;6.47;100.00;90335.03;2115362;27;20032;-82
2024/02/10 04:46:51;;;;;;;2.20;2.00;;;;;;;6.50;100.00;90336.06;2118043;27;20118;-81
2024/02/10 04:47:53;;;;;;;1.60;1.50;;;;;;;6.50;100.00;90336.78;2116373;27;20065;-82
2024/02/10 04:48:55;;;;;;;2.15;1.92;;;;;;;6.43;100.00;90334.47;2106690;28;20130;-82
2024/02/10 04:49:56;;;;;;;2.13;1.92;;;;;;;6.42;100.00;90335.69;2112888;27;20020;-80
2024/02/10 04:50:59;;;;;;;2.25;1.80;;;;;;;6.38;100.00;90331.75;2107358;28;20026;-80
2024/02/10 04:52:01;;;;;;;1.85;1.75;;;;;;;6.46;100.00;90328.25;2105654;27;20369;-80
2024/02/10 04:53:06;;;;;;;2.10;1.90;;;;;;;6.50;100.00;90326.16;2120443;27;20101;-82
2024/02/10 04:54:09;;;;;;;2.00;1.88;;;;;;;6.50;100.00;90326.16;2127615;27;20082;-82